Terminal Aerodrome Forecast
Issued by NWS

Home | Current Version | Previous Version | Graphics & Text | Print | Product List | Glossary On
Versions: 1 2 3 4 5 6 7 8 9 10 11 12 13 14 15 16 17 18 19 20 21
000
FTUS41 KCLE 241720
TAFFDY
TAF
KFDY 241720Z 2418/2518 20020G30KT P6SM SCT035
     FM242300 20020G30KT P6SM OVC045
      TEMPO 2423/2503 -TSRA OVC020CB
     FM250300 24014KT P6SM -SHRA SCT020 OVC060
      TEMPO 2503/2505 26025G45KT 2SM TSRA BKN015CB
     FM250500 23010G20KT P6SM OVC025
     FM251000 24015G25KT P6SM OVC025
     FM251700 26020G30KT P6SM OVC025=

USA.gov is the U.S. government's official web portal to all federal, state and local government web resources and services.